createdAt,value
2019-03-23T00:00:17.686Z,9.13
2019-03-23T00:02:47.163Z,10.50
2019-03-23T00:05:16.507Z,10.33
2019-03-23T00:07:45.795Z,9.73
2019-03-23T00:10:15.068Z,9.03
2019-03-23T00:12:44.364Z,9.70
2019-03-23T00:15:14.011Z,9.37
2019-03-23T00:17:43.314Z,14.27
2019-03-23T00:20:12.720Z,10.33
2019-03-23T00:22:42.019Z,9.40
2019-03-23T00:25:11.290Z,10.43
2019-03-23T00:27:40.604Z,11.17
2019-03-23T00:30:12.634Z,14.27
2019-03-23T00:32:42.001Z,12.10
2019-03-23T00:35:11.515Z,10.00
2019-03-23T00:37:40.819Z,10.43
2019-03-23T00:40:10.535Z,11.83
2019-03-23T00:42:39.838Z,11.20
2019-03-23T00:45:09.954Z,10.17
2019-03-23T00:47:39.320Z,11.33
2019-03-23T00:50:09.534Z,11.63
2019-03-23T00:52:38.843Z,9.77
2019-03-23T00:55:08.651Z,10.60
2019-03-23T00:57:37.926Z,10.53
2019-03-23T01:00:10.226Z,12.50
2019-03-23T01:02:41.699Z,11.43
2019-03-23T01:05:10.790Z,9.67
2019-03-23T01:07:40.203Z,10.23
2019-03-23T01:10:11.240Z,10.30
2019-03-23T01:12:40.586Z,10.27
2019-03-23T01:15:11.627Z,13.93
2019-03-23T01:17:40.976Z,11.10
2019-03-23T01:20:13.084Z,11.40
2019-03-23T01:22:42.358Z,10.80
2019-03-23T01:25:14.606Z,15.43
2019-03-23T01:27:43.873Z,11.97
2019-03-23T01:30:14.301Z,12.00
2019-03-23T01:32:43.591Z,11.50
2019-03-23T01:35:13.549Z,10.80
2019-03-23T01:37:42.825Z,11.67
2019-03-23T01:40:13.817Z,11.40
2019-03-23T01:42:43.118Z,13.03
2019-03-23T01:45:13.325Z,10.80
2019-03-23T01:47:42.683Z,11.83
2019-03-23T01:50:12.494Z,11.73
2019-03-23T01:52:41.793Z,9.60
2019-03-23T01:55:11.942Z,11.13
2019-03-23T01:57:41.242Z,12.30
2019-03-23T02:00:13.590Z,14.53
2019-03-23T02:02:42.878Z,9.60
2019-03-23T02:05:12.179Z,12.90
2019-03-23T02:07:41.492Z,10.60
2019-03-23T02:10:11.914Z,12.90
2019-03-23T02:12:41.233Z,12.63
2019-03-23T02:15:12.040Z,12.80
2019-03-23T02:17:41.357Z,12.97
2019-03-23T02:20:12.465Z,12.90
2019-03-23T02:22:42.034Z,12.33
2019-03-23T02:25:11.534Z,12.90
2019-03-23T02:27:41.117Z,12.17
2019-03-23T02:30:13.777Z,12.10
2019-03-23T02:32:43.067Z,9.87
2019-03-23T02:35:12.474Z,12.93
2019-03-23T02:37:41.780Z,11.10
2019-03-23T02:40:11.383Z,11.50
2019-03-23T02:42:40.721Z,12.83
2019-03-23T02:45:11.630Z,13.80
2019-03-23T02:47:40.922Z,12.47
2019-03-23T02:50:10.751Z,12.37
2019-03-23T02:52:40.043Z,11.97
2019-03-23T02:55:09.951Z,12.97
2019-03-23T02:57:39.390Z,12.23
2019-03-23T03:00:14.071Z,11.20
2019-03-23T03:02:43.405Z,12.80
2019-03-23T03:05:12.759Z,13.37
2019-03-23T03:07:43.549Z,16.03
2019-03-23T03:10:32.599Z,11.70
2019-03-23T03:13:01.901Z,13.23
2019-03-23T03:15:31.166Z,11.57
2019-03-23T03:18:00.465Z,12.03
2019-03-23T03:20:29.730Z,12.57
2019-03-23T03:22:59.022Z,13.93
2019-03-23T03:25:28.295Z,15.97
2019-03-23T03:27:57.596Z,14.97
2019-03-23T03:30:26.861Z,13.87
2019-03-23T03:32:56.150Z,17.90
2019-03-23T03:35:25.429Z,18.70
2019-03-23T03:37:56.791Z,16.87
2019-03-23T03:40:25.705Z,18.27
2019-03-23T03:42:54.990Z,18.80
2019-03-23T03:45:27.933Z,18.00
2019-03-23T03:47:57.233Z,20.70
2019-03-23T03:50:26.513Z,17.60
2019-03-23T03:52:55.817Z,17.80
2019-03-23T03:55:25.098Z,18.60
2019-03-23T03:57:54.394Z,22.53
2019-03-23T04:00:23.667Z,22.80
2019-03-23T04:02:52.973Z,22.63
2019-03-23T04:05:22.245Z,22.90
2019-03-23T04:07:51.547Z,22.83
2019-03-23T04:10:20.815Z,19.00
2019-03-23T04:12:50.114Z,20.23
2019-03-23T04:15:19.399Z,20.70
2019-03-23T04:17:48.691Z,21.67
2019-03-23T04:20:17.961Z,20.03
2019-03-23T04:22:47.254Z,24.23
2019-03-23T04:25:16.537Z,20.20
2019-03-23T04:27:51.430Z,20.13
2019-03-23T04:30:26.090Z,21.17
2019-03-23T04:32:55.402Z,20.57
2019-03-23T04:35:24.674Z,20.50
2019-03-23T04:37:53.950Z,22.57
2019-03-23T04:40:23.250Z,20.20
2019-03-23T04:42:52.533Z,25.23
2019-03-23T04:45:21.844Z,20.27
2019-03-23T04:47:51.229Z,20.27
2019-03-23T04:50:20.501Z,21.23
2019-03-23T04:52:49.782Z,19.57
2019-03-23T04:55:19.077Z,17.57
2019-03-23T04:57:48.359Z,22.03
2019-03-23T05:00:19.094Z,23.27
2019-03-23T05:02:48.414Z,21.60
2019-03-23T05:05:17.746Z,18.70
2019-03-23T05:07:47.030Z,17.03
2019-03-23T05:10:16.394Z,18.17
2019-03-23T05:12:45.669Z,17.33
2019-03-23T05:15:15.035Z,17.93
2019-03-23T05:17:45.319Z,17.43
2019-03-23T05:20:26.125Z,17.70
2019-03-23T05:22:55.474Z,22.13
2019-03-23T05:25:26.601Z,19.87
2019-03-23T05:27:56.147Z,20.70
2019-03-23T05:30:25.441Z,19.17
2019-03-23T05:32:54.715Z,16.90
2019-03-23T05:35:24.014Z,19.60
2019-03-23T05:37:53.368Z,18.33
2019-03-23T05:40:22.657Z,20.00
2019-03-23T05:42:51.929Z,17.60
2019-03-23T05:45:21.234Z,17.53
2019-03-23T05:47:50.517Z,16.83
2019-03-23T05:50:20.782Z,16.07
2019-03-23T05:52:50.065Z,19.77
2019-03-23T05:55:19.371Z,15.67
2019-03-23T05:57:48.642Z,17.63
2019-03-23T06:00:19.149Z,15.07
2019-03-23T06:02:48.433Z,13.50
2019-03-23T06:05:17.809Z,16.90
2019-03-23T06:07:47.091Z,15.00
2019-03-23T06:10:16.623Z,15.30
2019-03-23T06:12:45.902Z,17.83
2019-03-23T06:15:16.246Z,17.00
2019-03-23T06:17:45.547Z,15.30
2019-03-23T06:20:14.911Z,15.53
2019-03-23T06:22:44.205Z,17.47
2019-03-23T06:25:13.497Z,14.33
2019-03-23T06:27:42.796Z,17.37
2019-03-23T06:30:12.328Z,17.13
2019-03-23T06:32:41.626Z,19.63
2019-03-23T06:35:12.534Z,14.23
2019-03-23T06:37:41.821Z,14.87
2019-03-23T06:40:12.001Z,18.33
2019-03-23T06:42:41.276Z,16.20
2019-03-23T06:45:11.325Z,14.43
2019-03-23T06:47:43.806Z,16.27
2019-03-23T06:50:13.221Z,17.03
2019-03-23T06:52:42.592Z,16.93
2019-03-23T06:55:11.945Z,17.47
2019-03-23T06:57:41.237Z,18.53
2019-03-23T07:00:13.551Z,17.07
2019-03-23T07:02:42.834Z,15.83
2019-03-23T07:05:12.980Z,17.60
2019-03-23T07:07:42.272Z,18.50
2019-03-23T07:10:15.217Z,16.17
2019-03-23T07:12:44.503Z,16.83
2019-03-23T07:15:20.006Z,16.80
2019-03-23T07:17:55.667Z,17.33
2019-03-23T07:20:24.974Z,16.10
2019-03-23T07:22:54.983Z,18.70
2019-03-23T07:25:24.323Z,18.23
2019-03-23T07:27:53.605Z,19.53
2019-03-23T07:30:22.905Z,15.90
2019-03-23T07:32:52.185Z,14.77
2019-03-23T07:35:21.503Z,16.03
2019-03-23T07:37:50.802Z,14.63
2019-03-23T07:40:20.138Z,16.40
2019-03-23T07:42:49.441Z,15.53
2019-03-23T07:45:18.792Z,18.80
2019-03-23T07:47:48.089Z,15.50
2019-03-23T07:50:17.397Z,19.27
2019-03-23T07:52:46.691Z,18.07
2019-03-23T07:55:16.516Z,15.97
2019-03-23T07:57:45.889Z,17.10
2019-03-23T08:00:22.260Z,19.43
2019-03-23T08:02:51.552Z,17.00
2019-03-23T08:05:21.205Z,17.90
2019-03-23T08:07:50.505Z,19.97
2019-03-23T08:10:22.873Z,17.53
2019-03-23T08:12:52.182Z,18.03
2019-03-23T08:15:21.502Z,19.00
2019-03-23T08:17:50.784Z,19.50
2019-03-23T08:20:20.070Z,17.33
2019-03-23T08:22:49.433Z,18.93
2019-03-23T08:25:18.718Z,18.43
2019-03-23T08:27:48.097Z,19.33
2019-03-23T08:30:17.579Z,19.00
2019-03-23T08:32:46.870Z,18.67
2019-03-23T08:35:16.153Z,18.90
2019-03-23T08:37:45.473Z,21.23
2019-03-23T08:40:14.762Z,18.33
2019-03-23T08:42:44.052Z,18.90
2019-03-23T08:45:13.497Z,20.03
2019-03-23T08:47:42.814Z,17.07
2019-03-23T08:50:12.170Z,19.03
2019-03-23T08:52:41.468Z,20.13
2019-03-23T08:55:10.762Z,19.27
2019-03-23T08:57:41.407Z,20.47
2019-03-23T09:00:11.425Z,20.10
2019-03-23T09:02:41.263Z,20.83
2019-03-23T09:05:10.654Z,21.00
2019-03-23T09:07:40.025Z,19.27
2019-03-23T09:10:09.762Z,25.40
2019-03-23T09:12:39.042Z,21.50
2019-03-23T09:15:09.481Z,22.63
2019-03-23T09:17:38.765Z,26.67
2019-03-23T09:20:13.033Z,26.70
2019-03-23T09:22:42.312Z,25.03
2019-03-23T09:25:11.690Z,25.37
2019-03-23T09:27:40.973Z,26.93
2019-03-23T09:30:12.625Z,25.77
2019-03-23T09:32:41.910Z,25.50
2019-03-23T09:35:11.285Z,26.23
2019-03-23T09:37:40.572Z,23.53
2019-03-23T09:40:11.399Z,25.43
2019-03-23T09:42:40.879Z,25.57
2019-03-23T09:45:10.359Z,25.70
2019-03-23T09:47:39.742Z,28.50
2019-03-23T09:50:10.524Z,24.70
2019-03-23T09:52:39.925Z,27.17
2019-03-23T09:55:09.369Z,26.20
2019-03-23T09:57:38.647Z,24.23
2019-03-23T10:00:10.302Z,23.43
2019-03-23T10:02:39.653Z,26.17
2019-03-23T10:05:09.078Z,26.13
2019-03-23T10:07:38.382Z,25.33
2019-03-23T10:10:08.121Z,25.50
2019-03-23T10:12:37.412Z,26.83
2019-03-23T10:15:09.641Z,27.13
2019-03-23T10:17:38.927Z,27.47
2019-03-23T10:20:08.477Z,32.30
2019-03-23T10:22:37.769Z,29.17
2019-03-23T10:25:07.134Z,27.90
2019-03-23T10:27:36.501Z,26.23
2019-03-23T10:30:08.197Z,29.80
2019-03-23T10:32:38.510Z,26.50
2019-03-23T10:35:08.891Z,28.83
2019-03-23T10:37:38.190Z,27.40
2019-03-23T10:40:09.124Z,30.53
2019-03-23T10:42:38.414Z,27.80
2019-03-23T10:45:09.386Z,28.70
2019-03-23T10:47:38.888Z,28.00
2019-03-23T10:50:08.282Z,26.67
2019-03-23T10:52:37.590Z,27.73
2019-03-23T10:55:07.005Z,30.90
2019-03-23T10:57:36.382Z,26.53
2019-03-23T11:00:08.161Z,31.70
2019-03-23T11:02:39.088Z,26.67
2019-03-23T11:05:08.906Z,28.43
2019-03-23T11:07:38.218Z,33.97
2019-03-23T11:10:12.423Z,28.40
2019-03-23T11:12:41.797Z,28.90
2019-03-23T11:15:11.309Z,29.57
2019-03-23T11:17:40.633Z,30.87
2019-03-23T11:20:12.151Z,32.40
2019-03-23T11:22:41.454Z,31.90
2019-03-23T11:25:12.349Z,34.90
2019-03-23T11:27:41.718Z,26.50
2019-03-23T11:30:12.965Z,32.77
2019-03-23T11:32:42.326Z,32.80
2019-03-23T11:35:11.895Z,30.20
2019-03-23T11:37:41.486Z,33.37
2019-03-23T11:40:11.676Z,31.83
2019-03-23T11:42:49.358Z,30.57
2019-03-23T11:45:12.254Z,36.17
2019-03-23T11:47:41.600Z,34.07
2019-03-23T11:50:11.446Z,36.67
2019-03-23T11:52:41.701Z,34.03
2019-03-23T11:55:11.645Z,34.97
2019-03-23T11:57:40.931Z,35.17
2019-03-23T12:00:15.087Z,36.47
2019-03-23T12:02:44.463Z,37.37
2019-03-23T12:05:14.209Z,37.93
2019-03-23T12:07:43.510Z,35.97
2019-03-23T12:10:13.531Z,38.23
2019-03-23T12:12:42.837Z,34.77
2019-03-23T12:15:19.320Z,34.03
2019-03-23T12:17:48.615Z,37.20
2019-03-23T12:20:17.900Z,42.30
2019-03-23T12:22:47.200Z,39.33
2019-03-23T12:25:16.485Z,41.87
2019-03-23T12:27:45.859Z,41.27
2019-03-23T12:30:16.704Z,37.13
2019-03-23T12:32:45.993Z,37.57
2019-03-23T12:35:15.274Z,40.43
2019-03-23T12:37:44.574Z,40.40
2019-03-23T12:40:14.927Z,41.63
2019-03-23T12:42:44.221Z,40.63
2019-03-23T12:45:13.642Z,34.60
2019-03-23T12:47:42.950Z,41.03
2019-03-23T12:50:12.402Z,36.37
2019-03-23T12:52:41.701Z,37.83
2019-03-23T12:55:11.102Z,35.23
2019-03-23T12:57:40.406Z,39.00
2019-03-23T13:00:15.731Z,37.97
2019-03-23T13:02:45.033Z,40.20
2019-03-23T13:05:14.309Z,41.17
2019-03-23T13:07:43.619Z,41.07
2019-03-23T13:10:13.940Z,40.80
2019-03-23T13:12:43.306Z,40.83
2019-03-23T13:15:14.225Z,44.93
2019-03-23T13:17:43.530Z,42.30
2019-03-23T13:20:13.090Z,41.53
2019-03-23T13:22:43.402Z,42.33
2019-03-23T13:25:12.923Z,43.40
2019-03-23T13:27:42.372Z,44.87
2019-03-23T13:30:15.876Z,37.13
2019-03-23T13:32:45.178Z,42.80
2019-03-23T13:35:14.538Z,41.83
2019-03-23T13:37:43.847Z,44.27
2019-03-23T13:40:13.461Z,44.80
2019-03-23T13:42:42.771Z,41.63
2019-03-23T13:45:12.321Z,45.00
2019-03-23T13:47:41.687Z,43.77
2019-03-23T13:50:12.413Z,40.80
2019-03-23T13:52:41.721Z,44.77
2019-03-23T13:55:25.207Z,49.27
2019-03-23T13:57:54.545Z,50.63
2019-03-23T14:00:23.830Z,47.37
2019-03-23T14:02:53.131Z,48.50
2019-03-23T14:05:22.412Z,44.77
2019-03-23T14:07:51.710Z,49.10
2019-03-23T14:10:20.985Z,53.10
2019-03-23T14:12:50.290Z,51.07
2019-03-23T14:15:19.581Z,47.87
2019-03-23T14:17:48.953Z,50.77
2019-03-23T14:20:19.192Z,51.57
2019-03-23T14:22:48.493Z,48.73
2019-03-23T14:25:17.777Z,54.33
2019-03-23T14:27:48.158Z,48.37
2019-03-23T14:30:17.446Z,54.47
2019-03-23T14:32:46.750Z,53.43
2019-03-23T14:35:16.055Z,51.67
2019-03-23T14:37:45.339Z,55.33
2019-03-23T14:40:14.647Z,55.43
2019-03-23T14:42:43.927Z,53.20
2019-03-23T14:45:13.294Z,56.07
2019-03-23T14:47:42.578Z,53.47
2019-03-23T14:50:12.119Z,51.77
2019-03-23T14:52:41.401Z,54.50
2019-03-23T14:55:10.762Z,58.57
2019-03-23T14:57:40.578Z,53.80
2019-03-23T15:00:10.365Z,54.07
2019-03-23T15:02:39.643Z,54.63
2019-03-23T15:05:09.017Z,54.60
2019-03-23T15:07:38.546Z,56.73
2019-03-23T15:10:10.198Z,53.90
2019-03-23T15:12:40.455Z,60.03
2019-03-23T15:15:10.210Z,56.70
2019-03-23T15:17:48.470Z,56.43
2019-03-23T15:20:10.581Z,62.33
2019-03-23T15:22:39.857Z,60.07
2019-03-23T15:25:09.504Z,62.53
2019-03-23T15:27:38.786Z,58.63
2019-03-23T15:30:08.429Z,65.77
2019-03-23T15:32:37.718Z,65.47
2019-03-23T15:35:07.293Z,61.27
2019-03-23T15:37:36.586Z,64.43
2019-03-23T15:40:07.321Z,59.90
2019-03-23T15:42:36.597Z,61.37
2019-03-23T15:45:08.009Z,64.10
2019-03-23T15:47:37.289Z,59.73
2019-03-23T15:50:07.441Z,66.17
2019-03-23T15:52:36.715Z,61.90
2019-03-23T15:55:06.965Z,68.73
2019-03-23T15:57:36.413Z,65.67
2019-03-23T16:00:08.171Z,69.10
2019-03-23T16:02:37.449Z,70.17
2019-03-23T16:05:08.291Z,75.50
2019-03-23T16:07:37.883Z,69.00
2019-03-23T16:10:07.918Z,77.00
2019-03-23T16:12:38.467Z,77.73
2019-03-23T16:15:12.327Z,78.60
2019-03-23T16:17:41.608Z,73.97
2019-03-23T16:20:11.763Z,80.63
2019-03-23T16:22:41.119Z,83.43
2019-03-23T16:25:10.851Z,75.13
2019-03-23T16:27:40.157Z,67.90
2019-03-23T16:30:11.262Z,76.70
2019-03-23T16:32:40.549Z,76.93
2019-03-23T16:35:10.301Z,73.60
2019-03-23T16:37:39.597Z,74.37
2019-03-23T16:40:10.136Z,78.80
2019-03-23T16:42:45.191Z,75.87
2019-03-23T16:45:11.795Z,80.40
2019-03-23T16:47:41.081Z,85.20
2019-03-23T16:50:10.719Z,80.03
2019-03-23T16:52:40.012Z,82.10
2019-03-23T16:55:09.929Z,79.93
2019-03-23T16:57:39.364Z,85.47
2019-03-23T17:00:11.649Z,78.80
2019-03-23T17:02:40.956Z,80.77
2019-03-23T17:05:11.373Z,90.97
2019-03-23T17:07:40.677Z,76.20
2019-03-23T17:10:10.223Z,80.43
2019-03-23T17:12:39.522Z,78.57
2019-03-23T17:15:09.240Z,77.43
2019-03-23T17:17:38.545Z,76.87
2019-03-23T17:20:08.065Z,77.93
2019-03-23T17:22:37.373Z,79.03
2019-03-23T17:25:07.094Z,79.27
2019-03-23T17:27:37.473Z,84.67
2019-03-23T17:30:07.793Z,81.20
2019-03-23T17:32:38.902Z,86.60
2019-03-23T17:35:08.728Z,83.73
2019-03-23T17:37:38.023Z,79.93
2019-03-23T17:40:08.353Z,82.07
2019-03-23T17:42:37.803Z,86.70
2019-03-23T17:45:09.952Z,80.20
2019-03-23T17:47:40.412Z,72.90
2019-03-23T17:50:10.845Z,78.27
2019-03-23T17:52:43.981Z,81.10
2019-03-23T17:55:13.357Z,79.00
2019-03-23T17:57:42.981Z,83.70
2019-03-23T18:00:12.854Z,85.03
2019-03-23T18:02:42.459Z,78.53
2019-03-23T18:05:12.298Z,80.80
2019-03-23T18:07:41.773Z,83.63
2019-03-23T18:10:11.734Z,84.37
2019-03-23T18:12:41.261Z,80.17
2019-03-23T18:15:11.087Z,89.10
2019-03-23T18:17:40.535Z,85.50
2019-03-23T18:20:10.402Z,80.53
2019-03-23T18:22:39.933Z,87.30
2019-03-23T18:25:09.587Z,88.47
2019-03-23T18:27:39.077Z,88.93
2019-03-23T18:30:23.029Z,89.00
2019-03-23T18:32:52.333Z,96.87
2019-03-23T18:35:21.609Z,93.23
2019-03-23T18:37:50.902Z,85.17
2019-03-23T18:40:20.781Z,90.20
2019-03-23T18:42:50.093Z,94.17
2019-03-23T18:45:19.377Z,89.87
2019-03-23T18:47:48.708Z,87.27
2019-03-23T18:50:17.981Z,95.50
2019-03-23T18:52:47.331Z,89.57
2019-03-23T18:55:16.601Z,89.97
2019-03-23T18:57:45.901Z,88.60
2019-03-23T19:00:18.289Z,85.27
2019-03-23T19:02:47.594Z,87.17
2019-03-23T19:05:16.878Z,81.80
2019-03-23T19:07:46.182Z,86.40
2019-03-23T19:10:15.617Z,82.57
2019-03-23T19:12:44.928Z,85.37
2019-03-23T19:15:14.278Z,82.23
2019-03-23T19:17:43.652Z,76.70
2019-03-23T19:20:12.938Z,91.50
2019-03-23T19:22:42.237Z,80.73
2019-03-23T19:25:17.202Z,90.70
2019-03-23T19:27:43.556Z,80.80
2019-03-23T19:30:13.376Z,79.07
2019-03-23T19:32:42.680Z,81.37
2019-03-23T19:35:12.429Z,79.80
2019-03-23T19:37:41.738Z,65.43
2019-03-23T19:40:12.159Z,61.47
2019-03-23T19:42:41.459Z,64.17
2019-03-23T19:45:10.878Z,53.77
2019-03-23T19:47:40.184Z,59.63
2019-03-23T19:50:09.724Z,51.63
2019-03-23T19:52:39.025Z,53.20
2019-03-23T19:55:08.952Z,56.93
2019-03-23T19:57:40.103Z,50.43
2019-03-23T20:00:11.438Z,50.37
2019-03-23T20:02:40.997Z,58.10
2019-03-23T20:05:15.035Z,48.90
2019-03-23T20:07:44.429Z,47.47
2019-03-23T20:10:14.427Z,49.80
2019-03-23T20:12:43.830Z,45.70
2019-03-23T20:15:13.587Z,53.17
2019-03-23T20:17:43.179Z,48.07
2019-03-23T20:20:13.873Z,45.60
2019-03-23T20:22:44.998Z,49.77
2019-03-23T20:27:51.026Z,48.87
2019-03-23T20:30:20.903Z,47.37
2019-03-23T20:32:50.578Z,41.53
2019-03-23T20:35:20.214Z,41.93
2019-03-23T20:37:49.498Z,41.27
2019-03-23T20:40:18.793Z,41.77
2019-03-23T20:42:48.074Z,47.10
2019-03-23T20:45:20.511Z,42.53
2019-03-23T20:47:49.814Z,40.67
2019-03-23T20:50:19.126Z,43.13
2019-03-23T20:52:48.550Z,44.67
2019-03-23T20:55:26.291Z,45.10
2019-03-23T20:57:55.585Z,43.57
2019-03-23T21:00:25.509Z,43.77
2019-03-23T21:02:54.862Z,41.20
2019-03-23T21:05:33.156Z,43.57
2019-03-23T21:07:55.385Z,44.33
2019-03-23T21:10:24.894Z,46.50
2019-03-23T21:12:54.217Z,44.90
2019-03-23T21:15:23.629Z,43.20
2019-03-23T21:17:53.192Z,46.37
2019-03-23T21:20:23.483Z,41.10
2019-03-23T21:22:52.812Z,44.40
2019-03-23T21:25:22.140Z,42.40
2019-03-23T21:27:51.655Z,42.83
2019-03-23T21:30:21.569Z,45.90
2019-03-23T21:32:50.845Z,41.80
2019-03-23T21:35:20.289Z,43.07
2019-03-23T21:37:49.688Z,40.60
2019-03-23T21:40:19.479Z,42.53
2019-03-23T21:42:49.718Z,44.13
2019-03-23T21:45:19.139Z,43.03
2019-03-23T21:47:48.544Z,42.47
2019-03-23T21:50:17.857Z,42.13
2019-03-23T21:52:47.530Z,45.63
2019-03-23T21:55:16.907Z,40.43
2019-03-23T21:57:46.180Z,42.17
2019-03-23T22:00:18.618Z,47.60
2019-03-23T22:02:48.109Z,46.80
2019-03-23T22:05:17.515Z,44.47
2019-03-23T22:07:46.881Z,42.70
2019-03-23T22:10:16.273Z,45.57
2019-03-23T22:12:45.589Z,45.90
2019-03-23T22:15:15.373Z,40.07
2019-03-23T22:17:44.687Z,45.63
2019-03-23T22:20:14.107Z,45.50
2019-03-23T22:22:43.471Z,46.83
2019-03-23T22:25:14.008Z,44.93
2019-03-23T22:27:43.426Z,44.80
2019-03-23T22:30:14.449Z,51.27
2019-03-23T22:32:43.824Z,49.40
2019-03-23T22:35:13.314Z,44.33
2019-03-23T22:37:42.734Z,49.93
2019-03-23T22:40:13.085Z,48.20
2019-03-23T22:42:42.430Z,42.17
2019-03-23T22:45:15.034Z,50.00
2019-03-23T22:47:44.296Z,45.10
2019-03-23T22:50:13.917Z,46.97
2019-03-23T22:52:43.245Z,52.23
2019-03-23T22:55:12.525Z,45.33
2019-03-23T22:57:41.933Z,50.00
2019-03-23T23:00:15.834Z,50.07
2019-03-23T23:02:47.027Z,46.60
2019-03-23T23:05:16.473Z,49.03
2019-03-23T23:07:46.225Z,48.63
2019-03-23T23:10:17.305Z,44.10
2019-03-23T23:12:46.929Z,47.60
2019-03-23T23:15:19.181Z,45.60
2019-03-23T23:17:50.227Z,42.70
2019-03-23T23:20:19.998Z,44.50
2019-03-23T23:22:49.489Z,50.37
2019-03-23T23:25:20.563Z,49.83
2019-03-23T23:27:50.124Z,45.27
2019-03-23T23:30:21.413Z,45.07
2019-03-23T23:32:50.962Z,50.77
2019-03-23T23:35:22.959Z,48.23
2019-03-23T23:37:52.230Z,49.90
2019-03-23T23:40:21.509Z,47.13
2019-03-23T23:42:50.838Z,50.37
2019-03-23T23:45:20.119Z,48.40
2019-03-23T23:47:49.422Z,48.83
2019-03-23T23:50:18.697Z,46.73
2019-03-23T23:52:48.001Z,48.87
2019-03-23T23:55:17.276Z,45.73
2019-03-23T23:57:46.581Z,49.57
